Terminal Aerodrome Forecast
Issued by NWS

Home | Current Version | Previous Version | Text Only | Print | Product List | Glossary On
Versions: 1 2 3 4 5 6 7 8 9 10 11 12 13 14 15 16 17 18 19 20 21 22 23 24
000
FTUS43 KLSX 230300 AAA
TAFUIN
TAF AMD
KUIN 230314Z 2303/2324 16008KT 3SM -RA BR BKN005 OVC015
      TEMPO 2303/2304 2SM RA BR OVC004
     FM230400 18008KT 6SM -RA BKN010
      TEMPO 2304/2306 BKN008
     FM230600 23010KT P6SM SCT010 BKN025
     FM231200 23010KT P6SM SCT030
     FM231800 24010KT P6SM SCT100=

USA.gov is the U.S. government's official web portal to all federal, state and local government web resources and services.